Time;durP1;ratioP1;P1;durP2;ratioP2;P2;SDS_P1;SDS_P2;PMS_P1;PMS_P2;Temp;Humidity;BMP_temperature;BMP_pressure;BME280_temperature;BME280_humidity;BME280_pressure;Samples;Min_cycle;Max_cycle;Signal;HPM_P1;HPM_P2
2022/07/23 00:01:27;;;;;;;;;;;;;;;;;;5056058;28;20045;-70
2022/07/23 00:03:54;;;;;;;14.98;5.55;;;;;;;;;;5039352;28;20334;-68
2022/07/23 00:06:20;;;;;;;14.70;6.07;;;;;;;;;;5056797;28;20498;-69
2022/07/23 00:08:46;;;;;;;;;;;;;;;;;;5057290;28;20045;-69
2022/07/23 00:11:12;;;;;;;15.25;6.22;;;;;;;;;;5056814;28;20323;-69
2022/07/23 00:13:38;;;;;;;14.27;5.95;;;;;;;;;;5055671;28;20075;-69
2022/07/23 00:16:05;;;;;;;15.52;6.38;;;;;;;;;;5039581;28;20105;-69
2022/07/23 00:18:31;;;;;;;;;;;;;;;;;;5056827;28;20045;-69
2022/07/23 00:20:57;;;;;;;15.02;6.50;;;;;;;;;;5056748;28;19933;-69
2022/07/23 00:23:24;;;;;;;15.52;5.95;;;;;;;;;;5056617;28;20052;-82
2022/07/23 00:25:51;;;;;;;14.70;6.60;;;;;;;;;;5056593;28;20045;-69
2022/07/23 00:28:18;;;;;;;13.35;6.13;;;;;;;;;;5056574;28;20045;-69
2022/07/23 00:30:44;;;;;;;12.27;6.38;;;;;;;;;;5056304;28;20093;-69
2022/07/23 00:33:11;;;;;;;13.45;6.47;;;;;;;;;;5056391;28;20425;-69
2022/07/23 00:35:37;;;;;;;;;;;;;;;;;;5056289;28;20088;-69
2022/07/23 00:38:04;;;;;;;14.43;6.80;;;;;;;;;;5038871;28;19976;-69
2022/07/23 00:40:31;;;;;;;15.15;6.90;;;;;;;;;;5056678;28;20049;-69
2022/07/23 00:42:58;;;;;;;13.27;6.20;;;;;;;;;;5056099;28;20052;-69
2022/07/23 00:45:25;;;;;;;13.73;6.95;;;;;;;;;;5039403;28;20060;-69
2022/07/23 00:47:51;;;;;;;17.25;6.75;;;;;;;;;;5055195;28;20049;-70
2022/07/23 00:50:17;;;;;;;;;;;;;;;;;;5056376;28;20099;-69
2022/07/23 00:52:43;;;;;;;15.77;6.78;;;;;;;;;;5056054;28;19932;-69
2022/07/23 00:55:10;;;;;;;14.00;6.90;;;;;;;;;;5037733;28;20435;-69
2022/07/23 00:57:37;;;;;;;15.73;6.95;;;;;;;;;;5055818;28;20507;-70
2022/07/23 01:00:04;;;;;;;13.32;7.05;;;;;;;;;;5055856;28;20060;-69
2022/07/23 01:02:30;;;;;;;15.35;7.00;;;;;;;;;;5055699;28;20048;-70
2022/07/23 01:04:56;;;;;;;17.80;7.00;;;;;;;;;;5055217;28;20128;-69
2022/07/23 01:07:22;;;;;;;14.75;6.18;;;;;;;;;;5055837;28;20048;-69
2022/07/23 01:09:49;;;;;;;15.00;7.60;;;;;;;;;;5055702;28;20128;-69
2022/07/23 01:12:15;;;;;;;15.52;7.18;;;;;;;;;;5038957;28;20377;-68
2022/07/23 01:14:41;;;;;;;;;;;;;;;;;;5055977;28;20040;-68
2022/07/23 01:17:07;;;;;;;18.25;7.25;;;;;;;;;;5055587;28;19927;-69
2022/07/23 01:19:33;;;;;;;14.68;6.50;;;;;;;;;;5038024;28;20089;-69
2022/07/23 01:22:01;;;;;;;16.33;7.35;;;;;;;;;;5055113;28;20071;-69
2022/07/23 01:24:27;;;;;;;16.58;6.40;;;;;;;;;;5055526;28;20131;-67
2022/07/23 01:26:53;;;;;;;15.23;6.90;;;;;;;;;;5055261;28;20042;-68
2022/07/23 01:29:20;;;;;;;15.38;7.05;;;;;;;;;;5056253;28;20040;-68
2022/07/23 01:31:47;;;;;;;17.23;7.75;;;;;;;;;;5055210;28;20409;-69
2022/07/23 01:34:13;;;;;;;12.95;6.70;;;;;;;;;;5037792;28;20057;-68
2022/07/23 01:36:39;;;;;;;;;;;;;;;;;;5037820;28;20041;-68
2022/07/23 01:39:06;;;;;;;16.13;7.28;;;;;;;;;;5055044;28;19921;-68
2022/07/23 01:41:32;;;;;;;15.45;6.93;;;;;;;;;;5054675;28;20045;-68
2022/07/23 01:43:58;;;;;;;11.57;6.32;;;;;;;;;;5055066;28;20088;-68
2022/07/23 01:46:24;;;;;;;15.50;6.60;;;;;;;;;;5055131;28;20487;-68
2022/07/23 01:48:50;;;;;;;17.48;7.50;;;;;;;;;;5054969;28;20128;-68
2022/07/23 01:51:16;;;;;;;16.13;7.72;;;;;;;;;;5054861;28;20392;-68
2022/07/23 01:53:42;;;;;;;14.38;7.80;;;;;;;;;;5055454;28;20056;-69
2022/07/23 01:56:08;;;;;;;22.27;8.07;;;;;;;;;;5054825;28;20051;-76
2022/07/23 01:58:34;;;;;;;14.13;7.20;;;;;;;;;;5054741;28;20068;-69
2022/07/23 02:01:00;;;;;;;16.77;7.38;;;;;;;;;;5036889;28;20103;-69
2022/07/23 02:03:26;;;;;;;19.75;7.45;;;;;;;;;;5054477;28;20049;-69
2022/07/23 02:05:53;;;;;;;14.02;7.45;;;;;;;;;;5053429;28;20382;-69
2022/07/23 02:08:19;;;;;;;14.68;7.10;;;;;;;;;;5054602;28;20048;-69
2022/07/23 02:10:45;;;;;;;15.40;7.30;;;;;;;;;;5054581;28;20497;-69
2022/07/23 02:13:11;;;;;;;14.88;7.20;;;;;;;;;;5054496;28;20496;-69
2022/07/23 02:15:38;;;;;;;15.13;6.63;;;;;;;;;;5037558;28;20087;-69
2022/07/23 02:18:03;;;;;;;;;;;;;;;;;;5038125;28;20528;-69
2022/07/23 02:20:29;;;;;;;18.20;7.90;;;;;;;;;;5055337;28;20000;-68
2022/07/23 02:22:56;;;;;;;13.65;7.53;;;;;;;;;;5054386;28;20389;-69
2022/07/23 02:25:22;;;;;;;15.23;7.20;;;;;;;;;;5055169;28;20084;-69
2022/07/23 02:27:48;;;;;;;17.55;7.10;;;;;;;;;;5036816;28;20049;-69
2022/07/23 02:30:14;;;;;;;18.23;7.93;;;;;;;;;;5054073;28;20061;-68
2022/07/23 02:32:40;;;;;;;16.05;7.35;;;;;;;;;;5054991;28;20055;-69
2022/07/23 02:35:07;;;;;;;20.80;7.93;;;;;;;;;;5054059;28;20049;-69
2022/07/23 02:37:33;;;;;;;16.35;7.60;;;;;;;;;;5054013;28;20092;-69
2022/07/23 02:39:59;;;;;;;;;;;;;;;;;;5054308;28;20378;-69
2022/07/23 02:42:25;;;;;;;16.80;7.80;;;;;;;;;;5053610;28;19927;-69
2022/07/23 02:44:52;;;;;;;19.63;7.78;;;;;;;;;;5035901;28;20041;-69
2022/07/23 02:47:18;;;;;;;17.98;7.72;;;;;;;;;;5054488;28;20045;-69
2022/07/23 02:49:44;;;;;;;;;;;;;;;;;;5054227;28;20044;-69
2022/07/23 02:52:10;;;;;;;14.57;7.85;;;;;;;;;;5053879;28;19920;-69
2022/07/23 02:54:37;;;;;;;16.52;8.57;;;;;;;;;;5036156;28;20143;-69
2022/07/23 02:57:04;;;;;;;15.52;7.78;;;;;;;;;;5035970;28;20057;-69
2022/07/23 02:59:30;;;;;;;14.35;8.27;;;;;;;;;;5053796;28;20144;-70
2022/07/23 03:01:56;;;;;;;16.48;8.02;;;;;;;;;;5052423;28;20155;-69
2022/07/23 03:04:22;;;;;;;21.17;7.35;;;;;;;;;;5053506;28;20045;-68
2022/07/23 03:06:48;;;;;;;15.32;7.80;;;;;;;;;;5054046;28;20045;-68
2022/07/23 03:09:14;;;;;;;18.05;8.77;;;;;;;;;;5053444;28;20056;-69
2022/07/23 03:11:40;;;;;;;18.95;8.63;;;;;;;;;;5053475;28;20049;-69
2022/07/23 03:14:07;;;;;;;18.35;8.25;;;;;;;;;;5053341;28;20107;-69
2022/07/23 03:16:33;;;;;;;14.48;8.23;;;;;;;;;;5053027;28;20049;-69
2022/07/23 03:18:59;;;;;;;15.50;8.02;;;;;;;;;;5053859;28;20136;-69
2022/07/23 03:21:25;;;;;;;17.67;8.50;;;;;;;;;;5053306;28;20049;-69
2022/07/23 03:23:51;;;;;;;17.13;8.43;;;;;;;;;;5051902;28;20047;-69
2022/07/23 03:26:17;;;;;;;14.93;8.02;;;;;;;;;;5052966;28;20472;-69
2022/07/23 03:28:43;;;;;;;14.25;7.15;;;;;;;;;;5053884;28;20041;-69
2022/07/23 03:31:09;;;;;;;17.67;7.90;;;;;;;;;;5031381;28;20111;-71
2022/07/23 03:33:35;;;;;;;;;;;;;;;;;;5033043;28;20133;-69
2022/07/23 03:36:02;;;;;;;13.98;7.18;;;;;;;;;;5033219;28;19976;-70
2022/07/23 03:38:28;;;;;;;14.90;7.63;;;;;;;;;;5031401;28;20107;-68
2022/07/23 03:40:54;;;;;;;16.27;7.25;;;;;;;;;;5031925;28;20532;-69
2022/07/23 03:43:20;;;;;;;15.68;7.32;;;;;;;;;;5032146;28;20045;-69
2022/07/23 03:45:46;;;;;;;17.27;7.25;;;;;;;;;;5030822;28;20052;-69
2022/07/23 03:48:12;;;;;;;16.27;7.18;;;;;;;;;;5030603;28;20049;-69
2022/07/23 03:50:38;;;;;;;15.60;7.38;;;;;;;;;;5031579;28;20057;-69
2022/07/23 03:53:04;;;;;;;13.88;7.30;;;;;;;;;;5030852;28;20057;-69
2022/07/23 03:55:30;;;;;;;14.15;6.95;;;;;;;;;;5030434;28;20045;-69
2022/07/23 03:57:56;;;;;;;14.95;7.00;;;;;;;;;;5031920;28;20050;-70
2022/07/23 04:00:22;;;;;;;16.25;7.38;;;;;;;;;;5031389;28;20093;-69
2022/07/23 04:02:48;;;;;;;13.77;6.53;;;;;;;;;;5030885;28;20049;-69
2022/07/23 04:05:14;;;;;;;17.50;7.10;;;;;;;;;;5031281;28;20056;-69
2022/07/23 04:07:40;;;;;;;14.77;6.90;;;;;;;;;;5031249;28;20160;-69
2022/07/23 04:10:07;;;;;;;14.85;6.45;;;;;;;;;;5031230;28;20057;-69
2022/07/23 04:12:33;;;;;;;;;;;;;;;;;;5031565;28;20049;-69
2022/07/23 04:14:59;;;;;;;13.63;5.75;;;;;;;;;;5029965;28;19928;-69
2022/07/23 04:17:25;;;;;;;13.93;6.25;;;;;;;;;;5030113;28;20088;-69
2022/07/23 04:19:51;;;;;;;;;;;;;;;;;;5013914;28;20050;-69
2022/07/23 04:22:17;;;;;;;14.68;5.15;;;;;;;;;;5029566;28;19967;-68
2022/07/23 04:24:43;;;;;;;11.95;5.57;;;;;;;;;;5030983;28;20132;-68
2022/07/23 04:27:09;;;;;;;12.30;5.70;;;;;;;;;;5031375;28;20081;-68
2022/07/23 04:29:35;;;;;;;18.67;6.80;;;;;;;;;;5031567;28;20080;-68
2022/07/23 04:32:01;;;;;;;11.73;5.82;;;;;;;;;;5053479;28;20057;-69
2022/07/23 04:34:27;;;;;;;15.60;6.60;;;;;;;;;;5036566;28;20496;-70
2022/07/23 04:36:54;;;;;;;15.55;6.70;;;;;;;;;;5054558;28;20045;-70
2022/07/23 04:39:19;;;;;;;;;;;;;;;;;;5054745;28;20055;-69
2022/07/23 04:41:46;;;;;;;14.82;6.55;;;;;;;;;;5054420;28;19924;-68
2022/07/23 04:44:12;;;;;;;16.83;7.65;;;;;;;;;;5054464;28;20048;-69
2022/07/23 04:46:38;;;;;;;16.23;6.85;;;;;;;;;;5054290;28;20051;-69
2022/07/23 04:49:04;;;;;;;15.63;7.10;;;;;;;;;;5036685;28;20048;-70
2022/07/23 04:51:30;;;;;;;15.45;6.80;;;;;;;;;;5054308;28;20179;-69
2022/07/23 04:53:56;;;;;;;19.02;7.25;;;;;;;;;;5054843;28;20045;-69
2022/07/23 04:56:22;;;;;;;13.70;7.10;;;;;;;;;;5053980;28;20534;-70
2022/07/23 04:58:48;;;;;;;17.00;7.22;;;;;;;;;;5036672;28;20041;-70
2022/07/23 05:01:14;;;;;;;13.18;6.72;;;;;;;;;;5053928;28;20041;-69
2022/07/23 05:03:41;;;;;;;16.25;6.35;;;;;;;;;;5036250;28;20152;-69
2022/07/23 05:06:07;;;;;;;12.73;6.78;;;;;;;;;;5053856;28;20048;-70
2022/07/23 05:08:33;;;;;;;15.10;6.70;;;;;;;;;;5036231;28;20056;-69
2022/07/23 05:10:59;;;;;;;15.77;7.00;;;;;;;;;;5053741;28;20049;-69
2022/07/23 05:13:25;;;;;;;12.38;6.22;;;;;;;;;;5036160;28;20091;-70
2022/07/23 05:15:51;;;;;;;16.13;6.47;;;;;;;;;;5053648;28;20041;-83
2022/07/23 05:18:17;;;;;;;18.17;6.43;;;;;;;;;;5053343;28;20480;-70
2022/07/23 05:20:43;;;;;;;;;;;;;;;;;;5020046;28;20049;-70
2022/07/23 05:23:09;;;;;;;13.15;6.53;;;;;;;;;;5053636;28;20410;-71
2022/07/23 05:25:36;;;;;;;14.90;6.25;;;;;;;;;;5053323;28;20045;-70
2022/07/23 05:28:02;;;;;;;;;;;;;;;;;;5036441;28;20092;-70
2022/07/23 05:30:28;;;;;;;12.95;6.93;;;;;;;;;;5035333;28;19964;-69
2022/07/23 05:32:54;;;;;;;12.32;6.25;;;;;;;;;;5053518;28;20085;-70
2022/07/23 05:35:20;;;;;;;13.02;6.05;;;;;;;;;;5053293;28;20107;-68
2022/07/23 05:37:46;;;;;;;12.85;6.18;;;;;;;;;;5053799;28;20052;-69
2022/07/23 05:40:12;;;;;;;15.73;6.45;;;;;;;;;;5053551;28;20383;-70
2022/07/23 05:42:38;;;;;;;;;;;;;;;;;;5036096;28;20066;-70
2022/07/23 05:45:05;;;;;;;12.60;6.13;;;;;;;;;;5053186;28;20016;-71
2022/07/23 05:47:41;;;;;;;12.23;5.80;;;;;;;;;;5053077;28;20132;-69
2022/07/23 05:50:07;;;;;;;11.38;5.40;;;;;;;;;;5053134;28;20087;-79
2022/07/23 05:52:33;;;;;;;12.13;5.25;;;;;;;;;;5036014;28;20467;-70
2022/07/23 05:54:59;;;;;;;10.77;5.03;;;;;;;;;;5035479;28;20469;-70
2022/07/23 05:57:25;;;;;;;11.70;4.80;;;;;;;;;;5035256;28;20337;-70
2022/07/23 05:59:51;;;;;;;13.07;5.00;;;;;;;;;;5036296;28;20084;-69
2022/07/23 06:02:17;;;;;;;13.27;5.65;;;;;;;;;;5053689;28;20067;-69
2022/07/23 06:04:43;;;;;;;14.52;5.90;;;;;;;;;;5052842;28;20045;-68
2022/07/23 06:07:09;;;;;;;11.40;4.80;;;;;;;;;;5035172;28;20057;-85
2022/07/23 06:09:36;;;;;;;10.60;4.43;;;;;;;;;;5051424;28;20049;-70
2022/07/23 06:12:02;;;;;;;14.40;4.88;;;;;;;;;;5051460;28;20147;-70
2022/07/23 06:14:28;;;;;;;12.93;4.55;;;;;;;;;;5052596;28;20056;-70
2022/07/23 06:16:54;;;;;;;12.45;4.88;;;;;;;;;;5034982;28;20041;-70
2022/07/23 06:19:20;;;;;;;11.82;5.13;;;;;;;;;;5053017;28;20080;-71
2022/07/23 06:21:46;;;;;;;12.73;4.80;;;;;;;;;;5034929;28;20075;-69
2022/07/23 06:24:12;;;;;;;13.18;4.63;;;;;;;;;;5035092;28;20083;-80
2022/07/23 06:26:38;;;;;;;14.38;4.80;;;;;;;;;;5034743;28;20041;-69
2022/07/23 06:29:04;;;;;;;10.85;4.60;;;;;;;;;;5053055;28;20102;-70
2022/07/23 06:31:30;;;;;;;10.70;4.65;;;;;;;;;;5052660;28;20060;-70
2022/07/23 06:33:56;;;;;;;12.48;4.97;;;;;;;;;;5034725;28;20059;-69
2022/07/23 06:36:22;;;;;;;10.23;4.60;;;;;;;;;;5052080;28;20080;-70
2022/07/23 06:38:49;;;;;;;10.75;4.93;;;;;;;;;;5051758;28;20049;-70
2022/07/23 06:41:15;;;;;;;11.38;4.72;;;;;;;;;;5034465;28;20478;-71
2022/07/23 06:43:41;;;;;;;;;;;;;;;;;;5051307;28;20198;-70
2022/07/23 06:46:07;;;;;;;10.85;4.97;;;;;;;;;;5052148;28;19967;-69
2022/07/23 06:48:35;;;;;;;13.18;4.72;;;;;;;;;;5051854;28;20484;-69
2022/07/23 06:51:01;;;;;;;13.07;5.18;;;;;;;;;;5034941;28;20055;-71
2022/07/23 06:53:27;;;;;;;18.50;5.25;;;;;;;;;;5033918;28;20048;-71
2022/07/23 06:55:54;;;;;;;13.68;5.30;;;;;;;;;;5051782;28;20081;-70
2022/07/23 06:58:20;;;;;;;10.15;4.30;;;;;;;;;;5051902;28;20044;-71
2022/07/23 07:00:46;;;;;;;;;;;;;;;;;;5052281;28;20045;-71
2022/07/23 07:03:12;;;;;;;9.52;3.80;;;;;;;;;;5051720;28;19943;-70
2022/07/23 07:05:39;;;;;;;9.75;3.85;;;;;;;;;;5051682;28;20052;-69
2022/07/23 07:08:05;;;;;;;10.50;3.97;;;;;;;;;;5051661;28;20053;-70
2022/07/23 07:10:32;;;;;;;8.45;3.58;;;;;;;;;;5051761;28;20072;-71
2022/07/23 07:12:58;;;;;;;7.50;2.42;;;;;;;;;;5051842;28;20068;-70
2022/07/23 07:15:24;;;;;;;7.57;2.50;;;;;;;;;;5052168;28;20049;-70
2022/07/23 07:17:50;;;;;;;7.65;2.72;;;;;;;;;;5034330;28;20055;-70
2022/07/23 07:20:16;;;;;;;5.45;2.25;;;;;;;;;;5051792;28;20055;-71
2022/07/23 07:22:42;;;;;;;4.03;1.83;;;;;;;;;;5034164;28;20103;-68
2022/07/23 07:25:08;;;;;;;5.88;1.98;;;;;;;;;;5051932;28;20439;-68
2022/07/23 07:27:34;;;;;;;;;;;;;;;;;;5052220;28;20102;-70
2022/07/23 07:30:00;;;;;;;4.05;1.70;;;;;;;;;;5033215;28;19920;-72
2022/07/23 07:32:27;;;;;;;6.07;2.10;;;;;;;;;;5052050;28;20053;-69
2022/07/23 07:34:52;;;;;;;;;;;;;;;;;;5051924;28;20052;-71
2022/07/23 07:37:19;;;;;;;6.50;2.00;;;;;;;;;;5051400;28;19920;-71
2022/07/23 07:39:45;;;;;;;5.20;1.80;;;;;;;;;;5033819;28;20052;-71
2022/07/23 07:42:11;;;;;;;4.07;1.70;;;;;;;;;;5052148;28;20056;-72
2022/07/23 07:44:37;;;;;;;4.15;1.55;;;;;;;;;;5051473;28;20045;-71
2022/07/23 07:47:03;;;;;;;4.72;1.52;;;;;;;;;;5051814;28;20041;-71
2022/07/23 07:49:29;;;;;;;4.60;1.60;;;;;;;;;;5052171;28;20048;-71
2022/07/23 07:51:55;;;;;;;6.28;1.95;;;;;;;;;;5051284;28;20049;-69
2022/07/23 07:54:21;;;;;;;4.57;1.70;;;;;;;;;;5033684;28;20049;-67
2022/07/23 07:56:48;;;;;;;5.40;1.80;;;;;;;;;;5050396;28;20047;-67
2022/07/23 07:59:14;;;;;;;5.93;1.98;;;;;;;;;;5051885;28;20049;-69
2022/07/23 08:01:41;;;;;;;5.30;1.92;;;;;;;;;;5050782;28;20465;-69
2022/07/23 08:04:07;;;;;;;7.00;1.88;;;;;;;;;;5035151;28;20463;-67
2022/07/23 08:06:33;;;;;;;6.80;1.92;;;;;;;;;;5055181;28;20059;-68
2022/07/23 08:08:59;;;;;;;5.95;1.90;;;;;;;;;;5055046;28;20041;-68
2022/07/23 08:11:25;;;;;;;4.20;1.77;;;;;;;;;;5055151;28;20130;-69
2022/07/23 08:13:51;;;;;;;6.38;1.73;;;;;;;;;;5053815;28;20049;-69
2022/07/23 08:16:17;;;;;;;4.47;1.80;;;;;;;;;;5037168;28;20098;-68
2022/07/23 08:18:43;;;;;;;4.70;1.80;;;;;;;;;;5053776;28;20049;-69
2022/07/23 08:21:09;;;;;;;4.97;1.60;;;;;;;;;;5054841;28;20064;-69
2022/07/23 08:23:35;;;;;;;5.00;1.80;;;;;;;;;;5054858;28;20132;-69
2022/07/23 08:26:02;;;;;;;2.97;1.67;;;;;;;;;;5055087;28;20037;-69
2022/07/23 08:28:28;;;;;;;6.20;1.77;;;;;;;;;;5038153;28;20053;-70
2022/07/23 08:30:54;;;;;;;3.25;1.50;;;;;;;;;;5054774;28;20064;-70
2022/07/23 08:33:20;;;;;;;5.35;1.85;;;;;;;;;;5054678;28;20048;-69
2022/07/23 08:35:47;;;;;;;3.13;1.50;;;;;;;;;;5054422;28;20200;-70
2022/07/23 08:38:17;;;;;;;5.55;1.70;;;;;;;;;;5054530;28;20048;-72
2022/07/23 08:40:44;;;;;;;6.40;1.65;;;;;;;;;;5054407;28;20198;-74
2022/07/23 08:43:14;;;;;;;4.55;1.70;;;;;;;;;;5055094;28;20095;-70
2022/07/23 08:45:41;;;;;;;6.13;1.75;;;;;;;;;;5054348;28;20056;-70
2022/07/23 08:48:08;;;;;;;8.25;1.88;;;;;;;;;;5036804;28;20044;-69
2022/07/23 08:50:36;;;;;;;5.97;1.85;;;;;;;;;;5054554;28;20068;-70
2022/07/23 08:53:03;;;;;;;5.43;1.75;;;;;;;;;;5054756;28;20374;-71
2022/07/23 08:55:29;;;;;;;7.38;1.85;;;;;;;;;;5054298;28;20045;-70
2022/07/23 08:57:55;;;;;;;7.38;2.00;;;;;;;;;;5054197;28;20480;-69
2022/07/23 09:00:22;;;;;;;3.85;1.60;;;;;;;;;;5054474;28;20045;-70
2022/07/23 09:02:49;;;;;;;5.60;1.73;;;;;;;;;;5054103;28;20146;-71
2022/07/23 09:05:15;;;;;;;8.00;2.03;;;;;;;;;;5054018;28;20049;-70
2022/07/23 09:08:00;;;;;;;5.28;1.90;;;;;;;;;;5054237;28;20392;-68
2022/07/23 09:10:26;;;;;;;7.85;2.00;;;;;;;;;;5054273;28;20041;-68
2022/07/23 09:12:52;;;;;;;5.72;2.22;;;;;;;;;;5053807;28;20153;-69
2022/07/23 09:15:18;;;;;;;7.57;1.90;;;;;;;;;;5053454;28;20087;-69
2022/07/23 09:17:44;;;;;;;4.55;1.75;;;;;;;;;;5053843;28;20045;-70
2022/07/23 09:20:15;;;;;;;6.22;1.85;;;;;;;;;;5036786;28;20072;-69
2022/07/23 09:22:48;;;;;;;8.77;2.00;;;;;;;;;;5053656;28;20132;-71
2022/07/23 09:25:18;;;;;;;7.72;1.70;;;;;;;;;;5053844;28;20400;-71
2022/07/23 09:27:55;;;;;;;6.57;1.73;;;;;;;;;;5054423;28;20057;-72
2022/07/23 09:30:29;;;;;;;3.97;1.63;;;;;;;;;;5035926;28;20052;-70
2022/07/23 09:33:05;;;;;;;5.15;1.95;;;;;;;;;;5036375;28;20504;-70
2022/07/23 09:35:49;;;;;;;5.38;1.80;;;;;;;;;;5053547;28;20045;-70
2022/07/23 09:38:16;;;;;;;6.30;1.90;;;;;;;;;;5053511;28;20049;-72
2022/07/23 09:40:42;;;;;;;7.57;1.90;;;;;;;;;;5054152;28;20045;-71
2022/07/23 09:43:08;;;;;;;;;;;;;;;;;;5053862;28;20056;-70
2022/07/23 09:45:35;;;;;;;5.95;1.80;;;;;;;;;;5053497;28;20280;-70
2022/07/23 09:48:11;;;;;;;5.75;2.10;;;;;;;;;;5053193;28;20438;-70
2022/07/23 09:50:37;;;;;;;4.63;2.00;;;;;;;;;;5053303;28;20045;-71
2022/07/23 09:53:03;;;;;;;8.18;2.10;;;;;;;;;;5035857;28;20511;-68
2022/07/23 09:55:29;;;;;;;;;;;;;;;;;;5035906;28;20048;-70
2022/07/23 09:57:55;;;;;;;5.70;1.80;;;;;;;;;;5053114;28;19927;-71
2022/07/23 10:00:23;;;;;;;4.43;1.70;;;;;;;;;;5051974;28;20162;-70
2022/07/23 10:02:50;;;;;;;6.40;2.22;;;;;;;;;;5036135;28;20135;-72
2022/07/23 10:05:16;;;;;;;5.82;1.92;;;;;;;;;;5035483;28;20056;-70
2022/07/23 10:07:43;;;;;;;5.03;2.03;;;;;;;;;;5052996;28;20045;-72
2022/07/23 10:10:10;;;;;;;7.78;2.20;;;;;;;;;;5053434;28;20435;-68
2022/07/23 10:15:03;;;;;;;8.27;2.25;;;;;;;;;;5052763;28;20049;-69
2022/07/23 10:17:29;;;;;;;6.10;2.10;;;;;;;;;;5053172;28;20127;-70
2022/07/23 10:19:55;;;;;;;8.18;2.20;;;;;;;;;;5052579;28;20523;-72
2022/07/23 10:22:21;;;;;;;;;;;;;;;;;;5035358;28;20053;-70
2022/07/23 10:25:13;;;;;;;5.68;2.03;;;;;;;;;;5052462;28;19927;-67
2022/07/23 10:27:49;;;;;;;6.70;2.00;;;;;;;;;;5048749;28;20051;-69
2022/07/23 10:30:21;;;;;;;5.13;2.03;;;;;;;;;;5052375;28;20515;-68
2022/07/23 10:32:47;;;;;;;10.65;2.30;;;;;;;;;;5052909;28;20088;-68
2022/07/23 10:35:25;;;;;;;7.97;2.20;;;;;;;;;;5034961;28;20053;-68
2022/07/23 10:37:56;;;;;;;8.35;2.30;;;;;;;;;;5051185;28;20461;-72
2022/07/23 10:40:23;;;;;;;5.93;2.00;;;;;;;;;;5052432;28;20044;-72
2022/07/23 10:42:51;;;;;;;10.43;2.20;;;;;;;;;;5034879;28;20102;-69
2022/07/23 10:45:23;;;;;;;6.13;2.20;;;;;;;;;;5034527;28;20048;-67
2022/07/23 10:47:53;;;;;;;9.63;2.47;;;;;;;;;;5052137;28;20499;-69
2022/07/23 10:50:20;;;;;;;8.13;2.30;;;;;;;;;;5034658;28;20081;-71
2022/07/23 10:53:05;;;;;;;5.85;2.10;;;;;;;;;;5052033;28;20052;-69
2022/07/23 10:55:31;;;;;;;9.63;2.38;;;;;;;;;;5052669;28;20048;-70
2022/07/23 10:57:58;;;;;;;8.75;2.28;;;;;;;;;;5051638;28;20539;-68
2022/07/23 11:00:25;;;;;;;8.63;2.63;;;;;;;;;;5052807;28;20045;-70
2022/07/23 11:02:55;;;;;;;7.63;2.20;;;;;;;;;;5051976;28;20052;-69
2022/07/23 11:05:22;;;;;;;8.88;2.60;;;;;;;;;;5052044;28;20099;-70
2022/07/23 11:08:03;;;;;;;8.60;2.45;;;;;;;;;;5052153;28;20051;-71
2022/07/23 11:10:33;;;;;;;7.63;2.63;;;;;;;;;;5051809;28;20048;-69
2022/07/23 11:13:19;;;;;;;9.15;2.60;;;;;;;;;;5051744;28;20044;-67
2022/07/23 11:16:04;;;;;;;6.65;2.45;;;;;;;;;;5034422;28;20384;-70
2022/07/23 11:18:48;;;;;;;10.52;2.65;;;;;;;;;;5052512;28;20069;-69
2022/07/23 11:21:23;;;;;;;9.75;2.70;;;;;;;;;;5033993;28;20050;-70
2022/07/23 11:24:09;;;;;;;9.30;2.45;;;;;;;;;;5051635;28;20080;-69
2022/07/23 11:26:43;;;;;;;8.10;2.30;;;;;;;;;;5052323;28;20459;-66
2022/07/23 11:29:27;;;;;;;10.35;2.45;;;;;;;;;;5051695;28;20041;-67
2022/07/23 11:31:53;;;;;;;7.97;2.30;;;;;;;;;;5051084;28;20102;-69
2022/07/23 11:34:19;;;;;;;;;;;;;;;;;;5051878;28;20481;-69
2022/07/23 11:36:50;;;;;;;7.13;2.55;;;;;;;;;;5034311;28;19967;-68
2022/07/23 11:39:16;;;;;;;11.52;3.20;;;;;;;;;;5039286;28;20048;-68
2022/07/23 11:41:45;;;;;;;8.45;2.80;;;;;;;;;;5058422;28;20045;-68
2022/07/23 11:44:27;;;;;;;8.18;2.60;;;;;;;;;;5058204;28;20132;-68
2022/07/23 11:47:00;;;;;;;8.90;2.90;;;;;;;;;;5057955;28;20118;-69
2022/07/23 11:49:26;;;;;;;9.52;3.08;;;;;;;;;;5058336;28;20091;-69
2022/07/23 11:52:12;;;;;;;8.77;2.83;;;;;;;;;;5058658;28;20107;-69
2022/07/23 11:54:47;;;;;;;9.45;2.95;;;;;;;;;;5040328;28;20395;-68
2022/07/23 11:57:13;;;;;;;12.32;2.85;;;;;;;;;;5057608;28;20084;-69
2022/07/23 11:59:39;;;;;;;9.13;3.25;;;;;;;;;;5058835;28;20351;-67
2022/07/23 12:02:05;;;;;;;;;;;;;;;;;;5058747;28;20080;-70
2022/07/23 12:04:41;;;;;;;7.75;2.85;;;;;;;;;;5058044;28;19939;-69
2022/07/23 12:07:44;;;;;;;11.20;3.10;;;;;;;;;;5058597;28;20137;-69
2022/07/23 12:10:10;;;;;;;7.82;2.80;;;;;;;;;;4977035;28;20142;-69
2022/07/23 12:12:37;;;;;;;7.97;2.72;;;;;;;;;;5042485;28;20057;-69
2022/07/23 12:15:04;;;;;;;9.73;2.60;;;;;;;;;;5058093;28;20144;-69
2022/07/23 12:17:31;;;;;;;8.40;2.75;;;;;;;;;;5040416;28;20049;-68
2022/07/23 12:19:58;;;;;;;10.10;2.85;;;;;;;;;;5058684;28;20515;-69
2022/07/23 12:22:25;;;;;;;8.43;2.75;;;;;;;;;;5059351;28;20111;-70
2022/07/23 12:24:54;;;;;;;9.35;2.50;;;;;;;;;;5057070;28;20076;-73
2022/07/23 12:27:22;;;;;;;7.65;2.42;;;;;;;;;;5059290;28;20481;-68
2022/07/23 12:29:48;;;;;;;9.32;2.63;;;;;;;;;;5040507;28;20502;-68
2022/07/23 12:32:14;;;;;;;;;;;;;;;;;;5058971;28;20060;-69
2022/07/23 12:34:40;;;;;;;7.32;2.53;;;;;;;;;;5024068;28;19920;-69
2022/07/23 12:37:06;;;;;;;7.38;2.40;;;;;;;;;;5059423;28;20052;-70
2022/07/23 12:39:32;;;;;;;6.03;2.15;;;;;;;;;;5041258;28;20048;-70
2022/07/23 12:41:58;;;;;;;7.53;2.35;;;;;;;;;;5058950;28;20049;-70
2022/07/23 12:44:24;;;;;;;6.30;2.30;;;;;;;;;;5058269;28;20045;-69
2022/07/23 12:46:51;;;;;;;7.82;2.33;;;;;;;;;;5058078;28;20048;-68
2022/07/23 12:49:27;;;;;;;7.55;2.50;;;;;;;;;;5039005;28;20085;-69
2022/07/23 12:51:53;;;;;;;6.78;2.30;;;;;;;;;;5054792;28;20049;-69
2022/07/23 12:54:19;;;;;;;;;;;;;;;;;;5054002;28;20063;-70
2022/07/23 12:56:45;;;;;;;6.57;2.40;;;;;;;;;;5054316;28;20391;-69
2022/07/23 12:59:15;;;;;;;8.18;2.40;;;;;;;;;;5054648;28;20157;-68
2022/07/23 13:01:42;;;;;;;6.80;2.30;;;;;;;;;;5054382;28;20095;-69
2022/07/23 13:04:10;;;;;;;7.05;2.38;;;;;;;;;;5037316;28;20052;-70
2022/07/23 13:06:39;;;;;;;7.75;2.60;;;;;;;;;;5053281;28;20083;-68
2022/07/23 13:09:07;;;;;;;9.48;2.70;;;;;;;;;;5054036;28;20048;-81
2022/07/23 13:11:33;;;;;;;6.28;2.30;;;;;;;;;;5054002;28;20106;-70
2022/07/23 13:14:00;;;;;;;;;;;;;;;;;;5036959;28;20053;-70
2022/07/23 13:16:27;;;;;;;7.63;2.35;;;;;;;;;;5054452;28;19967;-69
2022/07/23 13:18:53;;;;;;;9.57;2.50;;;;;;;;;;5054628;28;20053;-70
2022/07/23 13:21:19;;;;;;;;;;;;;;;;;;5054857;28;20052;-69
2022/07/23 13:23:45;;;;;;;6.93;2.45;;;;;;;;;;5054219;28;19920;-69
2022/07/23 13:26:11;;;;;;;5.93;2.45;;;;;;;;;;5054849;28;20040;-68
2022/07/23 13:28:37;;;;;;;6.80;2.22;;;;;;;;;;5037030;28;20064;-70
2022/07/23 13:31:03;;;;;;;;;;;;;;;;;;5037230;28;20101;-68
2022/07/23 13:33:29;;;;;;;6.72;2.28;;;;;;;;;;5054241;28;20434;-72
2022/07/23 13:35:55;;;;;;;7.35;2.42;;;;;;;;;;5053884;28;20051;-69
2022/07/23 13:38:21;;;;;;;;;;;;;;;;;;5054243;28;20080;-69
2022/07/23 13:40:48;;;;;;;6.32;2.22;;;;;;;;;;5053819;28;19967;-67
2022/07/23 13:43:15;;;;;;;7.80;2.50;;;;;;;;;;5053289;28;20048;-68
2022/07/23 13:45:42;;;;;;;7.93;2.40;;;;;;;;;;5053645;28;20048;-69
2022/07/23 13:48:08;;;;;;;9.40;2.80;;;;;;;;;;5053437;28;20136;-71
2022/07/23 13:50:34;;;;;;;8.05;2.88;;;;;;;;;;5035265;28;20392;-68
2022/07/23 13:53:01;;;;;;;7.03;2.38;;;;;;;;;;5053004;28;20059;-67
2022/07/23 13:55:27;;;;;;;7.53;2.45;;;;;;;;;;5035130;28;20048;-69
2022/07/23 13:57:53;;;;;;;;;;;;;;;;;;5053170;28;20400;-69
2022/07/23 14:00:19;;;;;;;9.80;2.70;;;;;;;;;;5035365;28;20007;-70
2022/07/23 14:02:45;;;;;;;;;;;;;;;;;;5052243;28;20056;-69
2022/07/23 14:05:12;;;;;;;8.60;2.50;;;;;;;;;;5053177;28;19921;-70
2022/07/23 14:07:38;;;;;;;7.70;2.33;;;;;;;;;;5035985;28;20393;-70
2022/07/23 14:10:05;;;;;;;11.05;2.80;;;;;;;;;;5052697;28;20068;-70
2022/07/23 14:12:31;;;;;;;6.50;2.55;;;;;;;;;;5054241;28;20520;-69
2022/07/23 14:14:57;;;;;;;;;;;;;;;;;;5053562;28;20503;-70
2022/07/23 14:17:24;;;;;;;7.32;2.53;;;;;;;;;;5053343;28;19925;-70
2022/07/23 14:19:53;;;;;;;7.18;2.30;;;;;;;;;;5052874;28;20445;-70
2022/07/23 14:22:19;;;;;;;;;;;;;;;;;;5036319;28;20044;-70
2022/07/23 14:24:45;;;;;;;9.10;2.28;;;;;;;;;;5052477;28;20442;-69
2022/07/23 14:27:11;;;;;;;8.32;2.35;;;;;;;;;;5051656;28;20091;-70
2022/07/23 14:29:37;;;;;;;;;;;;;;;;;;5035771;28;20049;-67
2022/07/23 14:32:03;;;;;;;9.77;2.55;;;;;;;;;;5019626;28;20372;-68
2022/07/23 14:34:29;;;;;;;9.48;2.40;;;;;;;;;;5052619;28;20041;-69
2022/07/23 14:36:55;;;;;;;;;;;;;;;;;;5053822;28;20048;-70
2022/07/23 14:39:21;;;;;;;7.20;2.13;;;;;;;;;;5035542;28;20356;-68
2022/07/23 14:41:47;;;;;;;7.05;2.70;;;;;;;;;;5036641;28;20091;-71
2022/07/23 14:44:14;;;;;;;7.28;2.53;;;;;;;;;;5036022;28;20053;-68
2022/07/23 14:46:40;;;;;;;7.43;2.30;;;;;;;;;;5035803;28;20121;-70
2022/07/23 14:49:06;;;;;;;;;;;;;;;;;;5053533;28;20045;-68
2022/07/23 14:51:32;;;;;;;8.80;2.50;;;;;;;;;;5035276;28;20378;-68